Guttenberg, Iowa
Current Conditions -  °F | °C
As of 7:15 PM on Sunday 21 Dec 2014 (Local Time) from KPDC Reporting Station
Overcast Overcast  
Wind Chill:   Ceiling: 1500
Heat Index:   Visibility: 7mi
Dew Point:   Wind: 6mph
Humidity: 83%   Direction: 120°ESE
Pressure: 29.9"   Gusts: NA
Location:  42.79°N, 91.1°W
Report Text: KPDC 220115Z AUTO 12005KT 7SM OVC015 03/01 A2990 RMK AO2 T00320005
Loading
Personal Weather Stations






























Interactive Weather Map New forecast layout! Learn more

10-Day Weather Forecast

Advertisements
Track Severe Weather on mobile